sensor_id;sensor_type;location;lat;lon;timestamp;temperature;humidity
58469;DHT22;44257;44.804;10.220;2024-01-11T00:01:04;-1.60;99.90
58469;DHT22;44257;44.804;10.220;2024-01-11T00:03:29;-1.60;99.90
58469;DHT22;44257;44.804;10.220;2024-01-11T00:05:55;-1.60;99.90
58469;DHT22;44257;44.804;10.220;2024-01-11T00:08:21;-1.60;99.90
58469;DHT22;44257;44.804;10.220;2024-01-11T00:10:47;-1.60;99.90
58469;DHT22;44257;44.804;10.220;2024-01-11T00:13:13;-1.60;99.90
58469;DHT22;44257;44.804;10.220;2024-01-11T00:15:38;-1.60;99.90
58469;DHT22;44257;44.804;10.220;2024-01-11T00:18:04;-1.50;99.90
58469;DHT22;44257;44.804;10.220;2024-01-11T00:20:30;-1.40;99.90
58469;DHT22;44257;44.804;10.220;2024-01-11T00:22:56;-1.30;99.90
58469;DHT22;44257;44.804;10.220;2024-01-11T00:25:22;-1.30;99.90
58469;DHT22;44257;44.804;10.220;2024-01-11T00:27:47;-1.20;99.90
58469;DHT22;44257;44.804;10.220;2024-01-11T00:30:13;-1.10;99.90
58469;DHT22;44257;44.804;10.220;2024-01-11T00:32:39;-1.10;99.90
58469;DHT22;44257;44.804;10.220;2024-01-11T00:35:06;-1.10;99.90
58469;DHT22;44257;44.804;10.220;2024-01-11T00:37:31;-1.00;99.90
58469;DHT22;44257;44.804;10.220;2024-01-11T00:39:57;-1.00;99.90
58469;DHT22;44257;44.804;10.220;2024-01-11T00:42:23;-1.00;99.90
58469;DHT22;44257;44.804;10.220;2024-01-11T00:44:49;-1.10;99.90
58469;DHT22;44257;44.804;10.220;2024-01-11T00:47:15;-1.10;99.90
58469;DHT22;44257;44.804;10.220;2024-01-11T00:49:41;-1.00;99.90
58469;DHT22;44257;44.804;10.220;2024-01-11T00:52:06;-1.00;99.90
58469;DHT22;44257;44.804;10.220;2024-01-11T00:54:32;-1.00;99.90
58469;DHT22;44257;44.804;10.220;2024-01-11T00:56:58;-1.10;99.90
58469;DHT22;44257;44.804;10.220;2024-01-11T00:59:24;-1.10;99.90
58469;DHT22;44257;44.804;10.220;2024-01-11T01:01:50;-1.00;99.90
58469;DHT22;44257;44.804;10.220;2024-01-11T01:04:16;-1.00;99.90
58469;DHT22;44257;44.804;10.220;2024-01-11T01:06:42;-1.00;99.90
58469;DHT22;44257;44.804;10.220;2024-01-11T01:09:08;-0.90;99.90
58469;DHT22;44257;44.804;10.220;2024-01-11T01:11:34;-1.00;99.90
58469;DHT22;44257;44.804;10.220;2024-01-11T01:14:00;-1.00;99.90
58469;DHT22;44257;44.804;10.220;2024-01-11T01:16:26;-1.00;99.90
58469;DHT22;44257;44.804;10.220;2024-01-11T01:18:52;-0.90;99.90
58469;DHT22;44257;44.804;10.220;2024-01-11T01:21:18;-0.90;99.90
58469;DHT22;44257;44.804;10.220;2024-01-11T01:23:43;-0.90;99.90
58469;DHT22;44257;44.804;10.220;2024-01-11T01:26:09;-0.80;99.90
58469;DHT22;44257;44.804;10.220;2024-01-11T01:28:35;-0.70;99.90
58469;DHT22;44257;44.804;10.220;2024-01-11T01:31:01;-0.70;99.90
58469;DHT22;44257;44.804;10.220;2024-01-11T01:33:27;-0.60;99.90
58469;DHT22;44257;44.804;10.220;2024-01-11T01:35:53;-0.60;99.90
58469;DHT22;44257;44.804;10.220;2024-01-11T01:38:19;-0.50;99.90
58469;DHT22;44257;44.804;10.220;2024-01-11T01:40:45;-0.60;99.90
58469;DHT22;44257;44.804;10.220;2024-01-11T01:43:10;-0.60;99.90
58469;DHT22;44257;44.804;10.220;2024-01-11T01:45:38;-0.60;99.90
58469;DHT22;44257;44.804;10.220;2024-01-11T01:48:04;-0.60;99.90
58469;DHT22;44257;44.804;10.220;2024-01-11T01:50:31;-0.50;99.90
58469;DHT22;44257;44.804;10.220;2024-01-11T01:52:57;-0.50;99.90
58469;DHT22;44257;44.804;10.220;2024-01-11T01:55:23;-0.50;99.90
58469;DHT22;44257;44.804;10.220;2024-01-11T01:57:51;-0.50;99.90
58469;DHT22;44257;44.804;10.220;2024-01-11T02:00:18;-0.50;99.90
58469;DHT22;44257;44.804;10.220;2024-01-11T02:02:44;-0.50;99.90
58469;DHT22;44257;44.804;10.220;2024-01-11T02:05:13;-0.40;99.90
58469;DHT22;44257;44.804;10.220;2024-01-11T02:07:40;-0.40;99.90
58469;DHT22;44257;44.804;10.220;2024-01-11T02:10:07;-0.40;99.90
58469;DHT22;44257;44.804;10.220;2024-01-11T02:12:35;-0.40;99.90
58469;DHT22;44257;44.804;10.220;2024-01-11T02:15:01;-0.50;99.90
58469;DHT22;44257;44.804;10.220;2024-01-11T02:17:29;-0.50;99.90
58469;DHT22;44257;44.804;10.220;2024-01-11T02:19:55;-0.50;99.90
58469;DHT22;44257;44.804;10.220;2024-01-11T02:22:38;-0.50;99.90
58469;DHT22;44257;44.804;10.220;2024-01-11T02:25:04;-0.50;99.90
58469;DHT22;44257;44.804;10.220;2024-01-11T02:27:30;-0.60;99.90
58469;DHT22;44257;44.804;10.220;2024-01-11T02:29:56;-0.60;99.90
58469;DHT22;44257;44.804;10.220;2024-01-11T02:32:22;-0.60;99.90
58469;DHT22;44257;44.804;10.220;2024-01-11T02:34:48;-0.70;99.90
58469;DHT22;44257;44.804;10.220;2024-01-11T02:37:14;-0.70;99.90
58469;DHT22;44257;44.804;10.220;2024-01-11T02:39:40;-0.70;99.90
58469;DHT22;44257;44.804;10.220;2024-01-11T02:42:06;-0.80;99.90
58469;DHT22;44257;44.804;10.220;2024-01-11T02:44:31;-0.70;99.90
58469;DHT22;44257;44.804;10.220;2024-01-11T02:46:57;-0.70;99.90
58469;DHT22;44257;44.804;10.220;2024-01-11T02:49:23;-0.60;99.90
58469;DHT22;44257;44.804;10.220;2024-01-11T02:51:49;-0.60;99.90
58469;DHT22;44257;44.804;10.220;2024-01-11T02:54:15;-0.50;99.90
58469;DHT22;44257;44.804;10.220;2024-01-11T02:56:41;-0.50;99.90
58469;DHT22;44257;44.804;10.220;2024-01-11T02:59:07;-0.40;99.90
58469;DHT22;44257;44.804;10.220;2024-01-11T03:01:33;-0.40;99.90
58469;DHT22;44257;44.804;10.220;2024-01-11T03:03:59;-0.30;99.90
58469;DHT22;44257;44.804;10.220;2024-01-11T03:06:25;-0.20;99.90
58469;DHT22;44257;44.804;10.220;2024-01-11T03:08:50;-0.20;99.90
58469;DHT22;44257;44.804;10.220;2024-01-11T03:11:16;-0.30;99.90
58469;DHT22;44257;44.804;10.220;2024-01-11T03:13:42;-0.30;99.90
58469;DHT22;44257;44.804;10.220;2024-01-11T03:16:08;-0.40;99.90
58469;DHT22;44257;44.804;10.220;2024-01-11T03:18:34;-0.50;99.90
58469;DHT22;44257;44.804;10.220;2024-01-11T03:21:00;-0.60;99.90
58469;DHT22;44257;44.804;10.220;2024-01-11T03:23:26;-0.60;99.90
58469;DHT22;44257;44.804;10.220;2024-01-11T03:25:51;-0.60;99.90
58469;DHT22;44257;44.804;10.220;2024-01-11T03:28:17;-0.60;99.90
58469;DHT22;44257;44.804;10.220;2024-01-11T03:30:43;-0.60;99.90
58469;DHT22;44257;44.804;10.220;2024-01-11T03:33:09;-0.60;99.90
58469;DHT22;44257;44.804;10.220;2024-01-11T03:35:35;-0.60;99.90
58469;DHT22;44257;44.804;10.220;2024-01-11T03:38:01;-0.60;99.90
58469;DHT22;44257;44.804;10.220;2024-01-11T03:40:26;-0.70;99.90
58469;DHT22;44257;44.804;10.220;2024-01-11T03:42:52;-0.80;99.90
58469;DHT22;44257;44.804;10.220;2024-01-11T03:45:18;-1.00;99.90
58469;DHT22;44257;44.804;10.220;2024-01-11T03:47:47;-1.10;99.90
58469;DHT22;44257;44.804;10.220;2024-01-11T03:50:13;-1.10;99.90
58469;DHT22;44257;44.804;10.220;2024-01-11T03:52:39;-1.10;99.90
58469;DHT22;44257;44.804;10.220;2024-01-11T03:55:06;-1.20;99.90
58469;DHT22;44257;44.804;10.220;2024-01-11T03:57:31;-1.20;99.90
58469;DHT22;44257;44.804;10.220;2024-01-11T03:59:57;-1.20;99.90
58469;DHT22;44257;44.804;10.220;2024-01-11T04:02:24;-1.30;99.90
58469;DHT22;44257;44.804;10.220;2024-01-11T04:04:50;-1.30;99.90
58469;DHT22;44257;44.804;10.220;2024-01-11T04:07:16;-1.30;99.90
58469;DHT22;44257;44.804;10.220;2024-01-11T04:09:42;-1.30;99.90
58469;DHT22;44257;44.804;10.220;2024-01-11T04:12:08;-1.20;99.90
58469;DHT22;44257;44.804;10.220;2024-01-11T04:14:38;-1.30;99.90
58469;DHT22;44257;44.804;10.220;2024-01-11T04:17:05;-1.30;99.90
58469;DHT22;44257;44.804;10.220;2024-01-11T04:19:31;-1.30;99.90
58469;DHT22;44257;44.804;10.220;2024-01-11T04:21:56;-1.30;99.90
58469;DHT22;44257;44.804;10.220;2024-01-11T04:24:22;-1.20;99.90
58469;DHT22;44257;44.804;10.220;2024-01-11T04:26:48;-1.20;99.90
58469;DHT22;44257;44.804;10.220;2024-01-11T04:29:14;-1.20;99.90
58469;DHT22;44257;44.804;10.220;2024-01-11T04:31:40;-1.20;99.90
58469;DHT22;44257;44.804;10.220;2024-01-11T04:34:05;-1.30;99.90
58469;DHT22;44257;44.804;10.220;2024-01-11T04:36:31;-1.30;99.90
58469;DHT22;44257;44.804;10.220;2024-01-11T04:38:57;-1.40;99.90
58469;DHT22;44257;44.804;10.220;2024-01-11T04:41:23;-1.40;99.90
58469;DHT22;44257;44.804;10.220;2024-01-11T04:43:49;-1.40;99.90
58469;DHT22;44257;44.804;10.220;2024-01-11T04:46:18;-1.40;99.90
58469;DHT22;44257;44.804;10.220;2024-01-11T04:48:45;-1.40;99.90
58469;DHT22;44257;44.804;10.220;2024-01-11T04:51:12;-1.40;99.90
58469;DHT22;44257;44.804;10.220;2024-01-11T04:53:39;-1.40;99.90
58469;DHT22;44257;44.804;10.220;2024-01-11T04:56:16;-1.40;99.90
58469;DHT22;44257;44.804;10.220;2024-01-11T04:58:43;-1.40;99.90
58469;DHT22;44257;44.804;10.220;2024-01-11T05:01:13;-1.40;99.90
58469;DHT22;44257;44.804;10.220;2024-01-11T05:03:40;-1.40;99.90
58469;DHT22;44257;44.804;10.220;2024-01-11T05:06:06;-1.40;99.90
58469;DHT22;44257;44.804;10.220;2024-01-11T05:08:32;-1.40;99.90
58469;DHT22;44257;44.804;10.220;2024-01-11T05:10:57;-1.30;99.90
58469;DHT22;44257;44.804;10.220;2024-01-11T05:13:23;-1.30;99.90
58469;DHT22;44257;44.804;10.220;2024-01-11T05:15:49;-1.40;99.90
58469;DHT22;44257;44.804;10.220;2024-01-11T05:18:15;-1.40;99.90
58469;DHT22;44257;44.804;10.220;2024-01-11T05:20:41;-1.50;99.90
58469;DHT22;44257;44.804;10.220;2024-01-11T05:23:07;-1.50;99.90
58469;DHT22;44257;44.804;10.220;2024-01-11T05:25:32;-1.40;99.90
58469;DHT22;44257;44.804;10.220;2024-01-11T05:28:02;-1.50;99.90
58469;DHT22;44257;44.804;10.220;2024-01-11T05:30:29;-1.50;99.90
58469;DHT22;44257;44.804;10.220;2024-01-11T05:32:55;-1.50;99.90
58469;DHT22;44257;44.804;10.220;2024-01-11T05:35:22;-1.60;99.90
58469;DHT22;44257;44.804;10.220;2024-01-11T05:37:52;-1.60;99.90
58469;DHT22;44257;44.804;10.220;2024-01-11T05:40:18;-1.60;99.90
58469;DHT22;44257;44.804;10.220;2024-01-11T05:42:43;-1.60;99.90
58469;DHT22;44257;44.804;10.220;2024-01-11T05:45:09;-1.60;99.90
58469;DHT22;44257;44.804;10.220;2024-01-11T05:47:35;-1.60;99.90
58469;DHT22;44257;44.804;10.220;2024-01-11T05:50:02;-1.60;99.90
58469;DHT22;44257;44.804;10.220;2024-01-11T05:52:28;-1.60;99.90
58469;DHT22;44257;44.804;10.220;2024-01-11T05:54:54;-1.60;99.90
58469;DHT22;44257;44.804;10.220;2024-01-11T05:57:20;-1.60;99.90
58469;DHT22;44257;44.804;10.220;2024-01-11T05:59:46;-1.60;99.90
58469;DHT22;44257;44.804;10.220;2024-01-11T06:02:12;-1.60;99.90
58469;DHT22;44257;44.804;10.220;2024-01-11T06:04:39;-1.50;99.90
58469;DHT22;44257;44.804;10.220;2024-01-11T06:07:05;-1.50;99.90
58469;DHT22;44257;44.804;10.220;2024-01-11T06:09:31;-1.50;99.90
58469;DHT22;44257;44.804;10.220;2024-01-11T06:11:57;-1.50;99.90
58469;DHT22;44257;44.804;10.220;2024-01-11T06:14:22;-1.50;99.90
58469;DHT22;44257;44.804;10.220;2024-01-11T06:16:48;-1.40;99.90
58469;DHT22;44257;44.804;10.220;2024-01-11T06:19:14;-1.40;99.90
58469;DHT22;44257;44.804;10.220;2024-01-11T06:21:40;-1.50;99.90
58469;DHT22;44257;44.804;10.220;2024-01-11T06:24:06;-1.50;99.90
58469;DHT22;44257;44.804;10.220;2024-01-11T06:26:32;-1.50;99.90
58469;DHT22;44257;44.804;10.220;2024-01-11T06:28:58;-1.40;99.90
58469;DHT22;44257;44.804;10.220;2024-01-11T06:31:24;-1.40;99.90
58469;DHT22;44257;44.804;10.220;2024-01-11T06:33:50;-1.40;99.90
58469;DHT22;44257;44.804;10.220;2024-01-11T06:36:15;-1.30;99.90
58469;DHT22;44257;44.804;10.220;2024-01-11T06:38:41;-1.30;99.90
58469;DHT22;44257;44.804;10.220;2024-01-11T06:41:07;-1.10;99.90
58469;DHT22;44257;44.804;10.220;2024-01-11T06:43:33;-1.10;99.90
58469;DHT22;44257;44.804;10.220;2024-01-11T06:46:04;-1.10;99.90
58469;DHT22;44257;44.804;10.220;2024-01-11T06:48:30;-1.10;99.90
58469;DHT22;44257;44.804;10.220;2024-01-11T06:50:56;-1.10;99.90
58469;DHT22;44257;44.804;10.220;2024-01-11T06:53:22;-1.10;99.90
58469;DHT22;44257;44.804;10.220;2024-01-11T06:55:47;-1.00;99.90
58469;DHT22;44257;44.804;10.220;2024-01-11T06:58:15;-0.90;99.90
58469;DHT22;44257;44.804;10.220;2024-01-11T07:00:41;-0.90;99.90
58469;DHT22;44257;44.804;10.220;2024-01-11T07:03:09;-0.90;99.90
58469;DHT22;44257;44.804;10.220;2024-01-11T07:05:36;-0.80;99.90
58469;DHT22;44257;44.804;10.220;2024-01-11T07:08:02;-0.80;99.90
58469;DHT22;44257;44.804;10.220;2024-01-11T07:10:29;-0.70;99.90
58469;DHT22;44257;44.804;10.220;2024-01-11T07:12:55;-0.70;99.90
58469;DHT22;44257;44.804;10.220;2024-01-11T07:15:21;-0.70;99.90
58469;DHT22;44257;44.804;10.220;2024-01-11T07:17:48;-0.60;99.90
58469;DHT22;44257;44.804;10.220;2024-01-11T07:20:13;-0.60;99.90
58469;DHT22;44257;44.804;10.220;2024-01-11T07:22:42;-0.60;99.90
58469;DHT22;44257;44.804;10.220;2024-01-11T07:25:08;-0.60;99.90
58469;DHT22;44257;44.804;10.220;2024-01-11T07:27:33;-0.60;99.90
58469;DHT22;44257;44.804;10.220;2024-01-11T07:30:00;-0.50;99.90
58469;DHT22;44257;44.804;10.220;2024-01-11T07:32:28;-0.40;99.90
58469;DHT22;44257;44.804;10.220;2024-01-11T07:34:54;-0.30;99.90
58469;DHT22;44257;44.804;10.220;2024-01-11T07:37:19;-0.20;99.90
58469;DHT22;44257;44.804;10.220;2024-01-11T07:39:45;-0.20;99.90
58469;DHT22;44257;44.804;10.220;2024-01-11T07:42:12;-0.10;99.90
58469;DHT22;44257;44.804;10.220;2024-01-11T07:44:38;0.10;99.90
58469;DHT22;44257;44.804;10.220;2024-01-11T07:47:06;0.20;99.90
58469;DHT22;44257;44.804;10.220;2024-01-11T07:49:32;0.30;99.90
58469;DHT22;44257;44.804;10.220;2024-01-11T07:51:57;0.50;99.90
58469;DHT22;44257;44.804;10.220;2024-01-11T07:54:23;0.60;99.90
58469;DHT22;44257;44.804;10.220;2024-01-11T07:56:49;0.70;99.90
58469;DHT22;44257;44.804;10.220;2024-01-11T07:59:15;0.80;99.90
58469;DHT22;44257;44.804;10.220;2024-01-11T08:01:41;0.90;99.90
58469;DHT22;44257;44.804;10.220;2024-01-11T08:04:07;0.90;99.90
58469;DHT22;44257;44.804;10.220;2024-01-11T08:06:32;1.00;99.90
58469;DHT22;44257;44.804;10.220;2024-01-11T08:08:59;0.90;99.90
58469;DHT22;44257;44.804;10.220;2024-01-11T08:11:25;1.00;99.90
58469;DHT22;44257;44.804;10.220;2024-01-11T08:13:50;1.10;99.90
58469;DHT22;44257;44.804;10.220;2024-01-11T08:16:19;1.20;99.90
58469;DHT22;44257;44.804;10.220;2024-01-11T08:18:45;1.30;99.90
58469;DHT22;44257;44.804;10.220;2024-01-11T08:21:11;1.40;99.90
58469;DHT22;44257;44.804;10.220;2024-01-11T08:23:40;1.40;99.90
58469;DHT22;44257;44.804;10.220;2024-01-11T08:26:13;1.50;99.90
58469;DHT22;44257;44.804;10.220;2024-01-11T08:28:39;1.50;99.90
58469;DHT22;44257;44.804;10.220;2024-01-11T08:31:06;1.50;99.90
58469;DHT22;44257;44.804;10.220;2024-01-11T08:33:32;1.60;99.90
58469;DHT22;44257;44.804;10.220;2024-01-11T08:35:58;1.60;99.90
58469;DHT22;44257;44.804;10.220;2024-01-11T08:38:24;1.80;99.90
58469;DHT22;44257;44.804;10.220;2024-01-11T08:40:50;1.80;99.90
58469;DHT22;44257;44.804;10.220;2024-01-11T08:43:17;1.90;99.90
58469;DHT22;44257;44.804;10.220;2024-01-11T08:45:42;2.00;99.90
58469;DHT22;44257;44.804;10.220;2024-01-11T08:48:13;2.10;99.90
58469;DHT22;44257;44.804;10.220;2024-01-11T08:50:39;2.20;99.90
58469;DHT22;44257;44.804;10.220;2024-01-11T08:53:05;2.30;99.90
58469;DHT22;44257;44.804;10.220;2024-01-11T08:55:30;2.30;99.90
58469;DHT22;44257;44.804;10.220;2024-01-11T08:57:56;2.40;99.90
58469;DHT22;44257;44.804;10.220;2024-01-11T09:00:22;2.50;99.90
58469;DHT22;44257;44.804;10.220;2024-01-11T09:02:48;2.50;99.90
58469;DHT22;44257;44.804;10.220;2024-01-11T09:05:14;2.70;99.90
58469;DHT22;44257;44.804;10.220;2024-01-11T09:07:40;2.70;99.90
58469;DHT22;44257;44.804;10.220;2024-01-11T09:10:08;2.70;99.90
58469;DHT22;44257;44.804;10.220;2024-01-11T09:12:37;2.80;99.90
58469;DHT22;44257;44.804;10.220;2024-01-11T09:15:04;2.90;99.90
58469;DHT22;44257;44.804;10.220;2024-01-11T09:17:30;3.00;99.90
58469;DHT22;44257;44.804;10.220;2024-01-11T09:19:55;3.00;99.90
58469;DHT22;44257;44.804;10.220;2024-01-11T09:22:21;3.10;99.90
58469;DHT22;44257;44.804;10.220;2024-01-11T09:24:47;3.20;99.90
58469;DHT22;44257;44.804;10.220;2024-01-11T09:27:13;3.30;99.90
58469;DHT22;44257;44.804;10.220;2024-01-11T09:29:45;3.40;99.90
58469;DHT22;44257;44.804;10.220;2024-01-11T09:32:14;3.60;99.90
58469;DHT22;44257;44.804;10.220;2024-01-11T09:34:40;3.80;99.90
58469;DHT22;44257;44.804;10.220;2024-01-11T09:37:06;3.90;99.90
58469;DHT22;44257;44.804;10.220;2024-01-11T09:39:32;4.00;99.90
58469;DHT22;44257;44.804;10.220;2024-01-11T09:42:06;4.10;99.90
58469;DHT22;44257;44.804;10.220;2024-01-11T09:44:33;4.10;99.90
58469;DHT22;44257;44.804;10.220;2024-01-11T09:47:00;4.20;99.90
58469;DHT22;44257;44.804;10.220;2024-01-11T09:49:29;4.40;99.90
58469;DHT22;44257;44.804;10.220;2024-01-11T09:51:55;4.60;99.90
58469;DHT22;44257;44.804;10.220;2024-01-11T09:54:25;4.60;99.90
58469;DHT22;44257;44.804;10.220;2024-01-11T09:56:53;4.60;99.90
58469;DHT22;44257;44.804;10.220;2024-01-11T09:59:20;4.60;99.90
58469;DHT22;44257;44.804;10.220;2024-01-11T10:01:49;4.60;99.90
58469;DHT22;44257;44.804;10.220;2024-01-11T10:04:16;4.70;99.90
58469;DHT22;44257;44.804;10.220;2024-01-11T10:06:43;4.80;99.90
58469;DHT22;44257;44.804;10.220;2024-01-11T10:09:09;5.00;99.90
58469;DHT22;44257;44.804;10.220;2024-01-11T10:11:37;5.00;99.90
58469;DHT22;44257;44.804;10.220;2024-01-11T10:14:03;5.10;99.90
58469;DHT22;44257;44.804;10.220;2024-01-11T10:16:31;5.10;99.90
58469;DHT22;44257;44.804;10.220;2024-01-11T10:18:57;5.00;99.90
58469;DHT22;44257;44.804;10.220;2024-01-11T10:21:23;5.10;99.90
58469;DHT22;44257;44.804;10.220;2024-01-11T10:23:50;5.20;99.90
58469;DHT22;44257;44.804;10.220;2024-01-11T10:26:17;5.20;99.90
58469;DHT22;44257;44.804;10.220;2024-01-11T10:28:46;5.20;99.90
58469;DHT22;44257;44.804;10.220;2024-01-11T10:31:12;5.30;99.90
58469;DHT22;44257;44.804;10.220;2024-01-11T10:33:40;5.30;99.90
58469;DHT22;44257;44.804;10.220;2024-01-11T10:36:06;5.30;99.90
58469;DHT22;44257;44.804;10.220;2024-01-11T10:38:37;5.40;99.90
58469;DHT22;44257;44.804;10.220;2024-01-11T10:41:06;5.40;99.90
58469;DHT22;44257;44.804;10.220;2024-01-11T10:43:36;5.50;99.90
58469;DHT22;44257;44.804;10.220;2024-01-11T10:46:04;5.60;99.90
58469;DHT22;44257;44.804;10.220;2024-01-11T10:48:39;5.70;99.90
58469;DHT22;44257;44.804;10.220;2024-01-11T10:51:12;5.80;99.90
58469;DHT22;44257;44.804;10.220;2024-01-11T10:53:47;5.90;99.90
58469;DHT22;44257;44.804;10.220;2024-01-11T10:56:14;6.00;99.90
58469;DHT22;44257;44.804;10.220;2024-01-11T10:58:42;6.10;99.90
58469;DHT22;44257;44.804;10.220;2024-01-11T11:01:12;6.10;99.90
58469;DHT22;44257;44.804;10.220;2024-01-11T11:03:39;6.10;99.90
58469;DHT22;44257;44.804;10.220;2024-01-11T11:06:06;6.10;99.90
58469;DHT22;44257;44.804;10.220;2024-01-11T11:08:33;6.10;99.90
58469;DHT22;44257;44.804;10.220;2024-01-11T11:11:03;6.00;99.90
58469;DHT22;44257;44.804;10.220;2024-01-11T11:13:33;6.00;99.90
58469;DHT22;44257;44.804;10.220;2024-01-11T11:16:03;6.00;99.90
58469;DHT22;44257;44.804;10.220;2024-01-11T11:18:32;6.00;99.90
58469;DHT22;44257;44.804;10.220;2024-01-11T11:21:00;6.00;99.90
58469;DHT22;44257;44.804;10.220;2024-01-11T11:23:26;6.00;99.90
58469;DHT22;44257;44.804;10.220;2024-01-11T11:25:54;6.00;99.90
58469;DHT22;44257;44.804;10.220;2024-01-11T11:28:23;6.00;99.90
58469;DHT22;44257;44.804;10.220;2024-01-11T11:30:50;6.00;99.90
58469;DHT22;44257;44.804;10.220;2024-01-11T11:33:21;6.00;99.90
58469;DHT22;44257;44.804;10.220;2024-01-11T11:35:47;6.00;99.90
58469;DHT22;44257;44.804;10.220;2024-01-11T11:38:27;6.00;99.90
58469;DHT22;44257;44.804;10.220;2024-01-11T11:40:56;6.10;99.90
58469;DHT22;44257;44.804;10.220;2024-01-11T11:43:22;6.20;99.90
58469;DHT22;44257;44.804;10.220;2024-01-11T11:45:49;6.10;99.90
58469;DHT22;44257;44.804;10.220;2024-01-11T11:53:36;6.20;99.90
58469;DHT22;44257;44.804;10.220;2024-01-11T11:56:03;6.30;99.90
58469;DHT22;44257;44.804;10.220;2024-01-11T11:58:31;6.30;99.90
58469;DHT22;44257;44.804;10.220;2024-01-11T12:00:58;6.30;99.90
58469;DHT22;44257;44.804;10.220;2024-01-11T12:03:32;6.30;99.90
58469;DHT22;44257;44.804;10.220;2024-01-11T12:05:59;6.40;99.90
58469;DHT22;44257;44.804;10.220;2024-01-11T12:08:26;6.40;99.90
58469;DHT22;44257;44.804;10.220;2024-01-11T12:10:53;6.40;99.90
58469;DHT22;44257;44.804;10.220;2024-01-11T12:13:19;6.40;99.90
58469;DHT22;44257;44.804;10.220;2024-01-11T12:15:46;6.50;99.90
58469;DHT22;44257;44.804;10.220;2024-01-11T12:18:12;6.50;99.90
58469;DHT22;44257;44.804;10.220;2024-01-11T12:20:38;6.60;99.90
58469;DHT22;44257;44.804;10.220;2024-01-11T12:23:04;6.60;99.90
58469;DHT22;44257;44.804;10.220;2024-01-11T12:25:31;6.60;99.90
58469;DHT22;44257;44.804;10.220;2024-01-11T12:27:57;6.60;99.90
58469;DHT22;44257;44.804;10.220;2024-01-11T12:30:24;6.60;99.90
58469;DHT22;44257;44.804;10.220;2024-01-11T12:32:50;6.60;99.90
58469;DHT22;44257;44.804;10.220;2024-01-11T12:35:17;6.70;99.90
58469;DHT22;44257;44.804;10.220;2024-01-11T12:40:21;6.60;99.90
58469;DHT22;44257;44.804;10.220;2024-01-11T12:42:48;6.60;99.90
58469;DHT22;44257;44.804;10.220;2024-01-11T12:45:16;6.60;99.90
58469;DHT22;44257;44.804;10.220;2024-01-11T12:47:43;6.70;99.90
58469;DHT22;44257;44.804;10.220;2024-01-11T12:50:13;6.70;99.90
58469;DHT22;44257;44.804;10.220;2024-01-11T12:52:39;6.80;99.90
58469;DHT22;44257;44.804;10.220;2024-01-11T12:55:07;6.90;99.90
58469;DHT22;44257;44.804;10.220;2024-01-11T12:57:34;7.00;99.90
58469;DHT22;44257;44.804;10.220;2024-01-11T13:00:13;7.00;99.90
58469;DHT22;44257;44.804;10.220;2024-01-11T13:02:42;7.00;99.90
58469;DHT22;44257;44.804;10.220;2024-01-11T13:05:12;7.10;99.90
58469;DHT22;44257;44.804;10.220;2024-01-11T13:07:38;7.10;99.90
58469;DHT22;44257;44.804;10.220;2024-01-11T13:10:04;7.10;99.90
58469;DHT22;44257;44.804;10.220;2024-01-11T13:12:30;7.10;99.90
58469;DHT22;44257;44.804;10.220;2024-01-11T13:14:56;7.00;99.90
58469;DHT22;44257;44.804;10.220;2024-01-11T13:17:22;7.10;99.90
58469;DHT22;44257;44.804;10.220;2024-01-11T13:19:48;7.10;99.90
58469;DHT22;44257;44.804;10.220;2024-01-11T13:22:15;7.10;99.90
58469;DHT22;44257;44.804;10.220;2024-01-11T13:24:41;7.10;99.90
58469;DHT22;44257;44.804;10.220;2024-01-11T13:27:06;7.10;99.90
58469;DHT22;44257;44.804;10.220;2024-01-11T13:29:32;7.10;99.90
58469;DHT22;44257;44.804;10.220;2024-01-11T13:31:58;7.10;99.90
58469;DHT22;44257;44.804;10.220;2024-01-11T13:34:24;7.20;99.90
58469;DHT22;44257;44.804;10.220;2024-01-11T13:36:50;7.30;99.90
58469;DHT22;44257;44.804;10.220;2024-01-11T13:39:16;7.20;99.90
58469;DHT22;44257;44.804;10.220;2024-01-11T13:41:44;7.20;99.90
58469;DHT22;44257;44.804;10.220;2024-01-11T13:44:10;7.20;99.90
58469;DHT22;44257;44.804;10.220;2024-01-11T13:46:37;7.20;99.90
58469;DHT22;44257;44.804;10.220;2024-01-11T13:49:03;7.20;99.90
58469;DHT22;44257;44.804;10.220;2024-01-11T13:51:30;7.20;99.90
58469;DHT22;44257;44.804;10.220;2024-01-11T13:53:58;7.20;99.90
58469;DHT22;44257;44.804;10.220;2024-01-11T13:56:26;7.30;99.90
58469;DHT22;44257;44.804;10.220;2024-01-11T13:58:52;7.30;99.90
58469;DHT22;44257;44.804;10.220;2024-01-11T14:01:18;7.30;99.90
58469;DHT22;44257;44.804;10.220;2024-01-11T14:03:44;7.20;99.90
58469;DHT22;44257;44.804;10.220;2024-01-11T14:06:10;7.20;99.90
58469;DHT22;44257;44.804;10.220;2024-01-11T14:08:36;7.20;99.90
58469;DHT22;44257;44.804;10.220;2024-01-11T14:11:01;7.30;99.90
58469;DHT22;44257;44.804;10.220;2024-01-11T14:13:27;7.30;99.90
58469;DHT22;44257;44.804;10.220;2024-01-11T14:15:53;7.30;99.90
58469;DHT22;44257;44.804;10.220;2024-01-11T14:18:22;7.30;99.90
58469;DHT22;44257;44.804;10.220;2024-01-11T14:20:48;7.30;99.90
58469;DHT22;44257;44.804;10.220;2024-01-11T14:23:13;7.30;99.90
58469;DHT22;44257;44.804;10.220;2024-01-11T14:25:39;7.30;99.90
58469;DHT22;44257;44.804;10.220;2024-01-11T14:28:05;7.30;99.90
58469;DHT22;44257;44.804;10.220;2024-01-11T14:30:31;7.30;99.90
58469;DHT22;44257;44.804;10.220;2024-01-11T14:32:57;7.20;99.90
58469;DHT22;44257;44.804;10.220;2024-01-11T14:35:23;7.20;99.90
58469;DHT22;44257;44.804;10.220;2024-01-11T14:37:49;7.10;99.90
58469;DHT22;44257;44.804;10.220;2024-01-11T14:40:15;7.10;99.90
58469;DHT22;44257;44.804;10.220;2024-01-11T14:42:41;7.00;99.90
58469;DHT22;44257;44.804;10.220;2024-01-11T14:45:07;7.00;99.90
58469;DHT22;44257;44.804;10.220;2024-01-11T14:47:33;6.90;99.90
58469;DHT22;44257;44.804;10.220;2024-01-11T14:50:00;6.90;99.90
58469;DHT22;44257;44.804;10.220;2024-01-11T14:52:25;6.90;99.90
58469;DHT22;44257;44.804;10.220;2024-01-11T14:54:51;6.90;99.90
58469;DHT22;44257;44.804;10.220;2024-01-11T14:57:17;6.80;99.90
58469;DHT22;44257;44.804;10.220;2024-01-11T14:59:43;6.70;99.90
58469;DHT22;44257;44.804;10.220;2024-01-11T15:02:10;6.60;99.90
58469;DHT22;44257;44.804;10.220;2024-01-11T15:04:36;6.50;99.90
58469;DHT22;44257;44.804;10.220;2024-01-11T15:07:02;6.40;99.90
58469;DHT22;44257;44.804;10.220;2024-01-11T15:09:28;6.40;99.90
58469;DHT22;44257;44.804;10.220;2024-01-11T15:11:54;6.30;99.90
58469;DHT22;44257;44.804;10.220;2024-01-11T15:14:20;6.20;99.90
58469;DHT22;44257;44.804;10.220;2024-01-11T15:16:46;6.20;99.90
58469;DHT22;44257;44.804;10.220;2024-01-11T15:19:13;6.10;99.90
58469;DHT22;44257;44.804;10.220;2024-01-11T15:21:39;6.10;99.90
58469;DHT22;44257;44.804;10.220;2024-01-11T15:24:06;6.00;99.90
58469;DHT22;44257;44.804;10.220;2024-01-11T15:26:33;5.90;99.90